Terminal Aerodrome Forecast
Issued by NWS Brownsville, TX

Home | Current Version | Previous Version | Text Only | Print | Product List | Glossary On
Versions: 1 2 3 4 5 6 7 8 9 10 11 12 13 14 15 16 17 18 19 20 21
000
FTUS44 KBRO 281120
TAFHRL
TAF
KHRL 281120Z 2812/2912 33015KT 6SM BR OVC004
     FM281300 33012G25KT P6SM SCT250
     FM281700 34020G30KT P6SM FEW050 BKN250
     FM290000 01012G17KT P6SM FEW050
     FM290800 34008KT P6SM BKN050=

USA.gov is the U.S. government's official web portal to all federal, state and local government web resources and services.